sensor_id;sensor_type;location;lat;lon;timestamp;P1;durP1;ratioP1;P2;durP2;ratioP2
47555;SDS011;33291;46.222;26.460;2023-09-30T00:01:36;10.68;;;5.95;;
47555;SDS011;33291;46.222;26.460;2023-09-30T00:04:02;7.97;;;5.80;;
47555;SDS011;33291;46.222;26.460;2023-09-30T00:06:28;12.60;;;7.38;;
47555;SDS011;33291;46.222;26.460;2023-09-30T00:08:54;9.10;;;6.38;;
47555;SDS011;33291;46.222;26.460;2023-09-30T00:11:19;10.88;;;6.65;;
47555;SDS011;33291;46.222;26.460;2023-09-30T00:13:45;16.02;;;7.07;;
47555;SDS011;33291;46.222;26.460;2023-09-30T00:16:11;8.45;;;6.57;;
47555;SDS011;33291;46.222;26.460;2023-09-30T00:18:36;11.05;;;7.13;;
47555;SDS011;33291;46.222;26.460;2023-09-30T00:21:01;9.23;;;5.80;;
47555;SDS011;33291;46.222;26.460;2023-09-30T00:23:27;10.85;;;6.90;;
47555;SDS011;33291;46.222;26.460;2023-09-30T00:25:53;11.55;;;6.38;;
47555;SDS011;33291;46.222;26.460;2023-09-30T00:28:19;10.00;;;6.30;;
47555;SDS011;33291;46.222;26.460;2023-09-30T00:30:44;9.75;;;6.45;;
47555;SDS011;33291;46.222;26.460;2023-09-30T00:33:12;9.73;;;6.78;;
47555;SDS011;33291;46.222;26.460;2023-09-30T00:35:38;11.88;;;6.28;;
47555;SDS011;33291;46.222;26.460;2023-09-30T00:38:04;11.25;;;6.50;;
47555;SDS011;33291;46.222;26.460;2023-09-30T00:40:29;9.38;;;6.50;;
47555;SDS011;33291;46.222;26.460;2023-09-30T00:42:55;9.88;;;6.72;;
47555;SDS011;33291;46.222;26.460;2023-09-30T00:45:21;14.10;;;6.70;;
47555;SDS011;33291;46.222;26.460;2023-09-30T00:47:46;15.25;;;6.28;;
47555;SDS011;33291;46.222;26.460;2023-09-30T00:50:12;10.23;;;6.53;;
47555;SDS011;33291;46.222;26.460;2023-09-30T00:52:38;9.30;;;6.68;;
47555;SDS011;33291;46.222;26.460;2023-09-30T00:55:05;8.77;;;6.03;;
47555;SDS011;33291;46.222;26.460;2023-09-30T00:57:31;13.10;;;6.78;;
47555;SDS011;33291;46.222;26.460;2023-09-30T00:59:57;12.60;;;6.72;;
47555;SDS011;33291;46.222;26.460;2023-09-30T01:02:25;8.00;;;6.53;;
47555;SDS011;33291;46.222;26.460;2023-09-30T01:04:50;8.60;;;6.40;;
47555;SDS011;33291;46.222;26.460;2023-09-30T01:07:17;12.10;;;6.00;;
47555;SDS011;33291;46.222;26.460;2023-09-30T01:09:42;10.25;;;6.45;;
47555;SDS011;33291;46.222;26.460;2023-09-30T01:12:08;18.70;;;8.32;;
47555;SDS011;33291;46.222;26.460;2023-09-30T01:14:34;13.63;;;6.85;;
47555;SDS011;33291;46.222;26.460;2023-09-30T01:17:03;12.65;;;6.88;;
47555;SDS011;33291;46.222;26.460;2023-09-30T01:19:29;8.15;;;6.43;;
47555;SDS011;33291;46.222;26.460;2023-09-30T01:21:58;11.93;;;6.55;;
47555;SDS011;33291;46.222;26.460;2023-09-30T01:24:25;10.68;;;6.28;;
47555;SDS011;33291;46.222;26.460;2023-09-30T01:26:51;14.50;;;7.13;;
47555;SDS011;33291;46.222;26.460;2023-09-30T01:29:17;9.13;;;6.20;;
47555;SDS011;33291;46.222;26.460;2023-09-30T01:31:42;10.98;;;7.32;;
47555;SDS011;33291;46.222;26.460;2023-09-30T01:34:08;17.52;;;6.88;;
47555;SDS011;33291;46.222;26.460;2023-09-30T01:36:35;12.07;;;7.00;;
47555;SDS011;33291;46.222;26.460;2023-09-30T01:39:01;11.80;;;6.93;;
47555;SDS011;33291;46.222;26.460;2023-09-30T01:41:27;16.83;;;7.65;;
47555;SDS011;33291;46.222;26.460;2023-09-30T01:43:53;10.73;;;6.70;;
47555;SDS011;33291;46.222;26.460;2023-09-30T01:46:19;9.05;;;6.70;;
47555;SDS011;33291;46.222;26.460;2023-09-30T01:48:44;11.85;;;6.50;;
47555;SDS011;33291;46.222;26.460;2023-09-30T01:51:10;14.23;;;7.15;;
47555;SDS011;33291;46.222;26.460;2023-09-30T01:53:36;7.63;;;6.13;;
47555;SDS011;33291;46.222;26.460;2023-09-30T01:56:01;9.02;;;6.50;;
47555;SDS011;33291;46.222;26.460;2023-09-30T01:58:27;7.28;;;5.90;;
47555;SDS011;33291;46.222;26.460;2023-09-30T02:00:53;11.13;;;6.63;;
47555;SDS011;33291;46.222;26.460;2023-09-30T02:03:18;11.73;;;7.07;;
47555;SDS011;33291;46.222;26.460;2023-09-30T02:05:44;10.15;;;6.47;;
47555;SDS011;33291;46.222;26.460;2023-09-30T02:08:10;11.20;;;6.68;;
47555;SDS011;33291;46.222;26.460;2023-09-30T02:10:35;8.35;;;5.95;;
47555;SDS011;33291;46.222;26.460;2023-09-30T02:13:01;12.05;;;6.50;;
47555;SDS011;33291;46.222;26.460;2023-09-30T02:15:26;12.88;;;7.15;;
47555;SDS011;33291;46.222;26.460;2023-09-30T02:17:52;14.25;;;6.80;;
47555;SDS011;33291;46.222;26.460;2023-09-30T02:20:17;9.90;;;6.28;;
47555;SDS011;33291;46.222;26.460;2023-09-30T02:22:50;10.43;;;7.35;;
47555;SDS011;33291;46.222;26.460;2023-09-30T02:25:17;13.18;;;6.13;;
47555;SDS011;33291;46.222;26.460;2023-09-30T02:27:43;11.18;;;6.45;;
47555;SDS011;33291;46.222;26.460;2023-09-30T02:30:10;10.48;;;6.13;;
47555;SDS011;33291;46.222;26.460;2023-09-30T02:32:41;11.27;;;7.22;;
47555;SDS011;33291;46.222;26.460;2023-09-30T02:35:06;9.77;;;6.63;;
47555;SDS011;33291;46.222;26.460;2023-09-30T02:37:33;11.23;;;7.10;;
47555;SDS011;33291;46.222;26.460;2023-09-30T02:40:06;13.25;;;6.45;;
47555;SDS011;33291;46.222;26.460;2023-09-30T02:42:39;10.95;;;6.72;;
47555;SDS011;33291;46.222;26.460;2023-09-30T02:45:05;10.15;;;7.30;;
47555;SDS011;33291;46.222;26.460;2023-09-30T02:47:31;11.85;;;6.40;;
47555;SDS011;33291;46.222;26.460;2023-09-30T02:49:57;8.18;;;6.40;;
47555;SDS011;33291;46.222;26.460;2023-09-30T02:52:26;8.65;;;6.38;;
47555;SDS011;33291;46.222;26.460;2023-09-30T02:54:53;7.63;;;6.47;;
47555;SDS011;33291;46.222;26.460;2023-09-30T02:57:19;10.40;;;6.35;;
47555;SDS011;33291;46.222;26.460;2023-09-30T02:59:46;11.63;;;7.10;;
47555;SDS011;33291;46.222;26.460;2023-09-30T03:02:12;17.73;;;7.47;;
47555;SDS011;33291;46.222;26.460;2023-09-30T03:04:38;10.82;;;6.97;;
47555;SDS011;33291;46.222;26.460;2023-09-30T03:07:03;18.27;;;7.70;;
47555;SDS011;33291;46.222;26.460;2023-09-30T03:09:29;10.57;;;7.05;;
47555;SDS011;33291;46.222;26.460;2023-09-30T03:11:54;11.27;;;7.47;;
47555;SDS011;33291;46.222;26.460;2023-09-30T03:14:24;12.70;;;6.75;;
47555;SDS011;33291;46.222;26.460;2023-09-30T03:16:50;9.48;;;6.50;;
47555;SDS011;33291;46.222;26.460;2023-09-30T03:19:16;12.20;;;6.80;;
47555;SDS011;33291;46.222;26.460;2023-09-30T03:21:42;11.10;;;6.75;;
47555;SDS011;33291;46.222;26.460;2023-09-30T03:24:07;13.63;;;7.68;;
47555;SDS011;33291;46.222;26.460;2023-09-30T03:26:34;14.75;;;6.78;;
47555;SDS011;33291;46.222;26.460;2023-09-30T03:29:00;12.30;;;7.30;;
47555;SDS011;33291;46.222;26.460;2023-09-30T03:31:25;11.93;;;7.22;;
47555;SDS011;33291;46.222;26.460;2023-09-30T03:33:51;14.15;;;6.93;;
47555;SDS011;33291;46.222;26.460;2023-09-30T03:36:20;9.30;;;6.82;;
47555;SDS011;33291;46.222;26.460;2023-09-30T03:38:49;9.75;;;6.22;;
47555;SDS011;33291;46.222;26.460;2023-09-30T03:41:15;12.50;;;7.80;;
47555;SDS011;33291;46.222;26.460;2023-09-30T03:43:40;8.27;;;6.20;;
47555;SDS011;33291;46.222;26.460;2023-09-30T03:46:06;44.30;;;9.18;;
47555;SDS011;33291;46.222;26.460;2023-09-30T03:48:33;10.30;;;7.47;;
47555;SDS011;33291;46.222;26.460;2023-09-30T03:51:10;10.38;;;6.40;;
47555;SDS011;33291;46.222;26.460;2023-09-30T03:53:43;11.55;;;7.57;;
47555;SDS011;33291;46.222;26.460;2023-09-30T03:56:09;13.02;;;7.43;;
47555;SDS011;33291;46.222;26.460;2023-09-30T03:58:41;12.25;;;7.50;;
47555;SDS011;33291;46.222;26.460;2023-09-30T04:01:11;14.73;;;7.32;;
47555;SDS011;33291;46.222;26.460;2023-09-30T04:03:37;10.65;;;6.72;;
47555;SDS011;33291;46.222;26.460;2023-09-30T04:06:04;9.00;;;7.10;;
47555;SDS011;33291;46.222;26.460;2023-09-30T04:08:30;14.50;;;6.90;;
47555;SDS011;33291;46.222;26.460;2023-09-30T04:10:58;11.43;;;6.78;;
47555;SDS011;33291;46.222;26.460;2023-09-30T04:13:24;10.38;;;7.53;;
47555;SDS011;33291;46.222;26.460;2023-09-30T04:15:50;16.58;;;7.90;;
47555;SDS011;33291;46.222;26.460;2023-09-30T04:18:16;11.35;;;7.10;;
47555;SDS011;33291;46.222;26.460;2023-09-30T04:20:41;14.13;;;7.50;;
47555;SDS011;33291;46.222;26.460;2023-09-30T04:23:07;13.20;;;8.60;;
47555;SDS011;33291;46.222;26.460;2023-09-30T04:25:34;10.75;;;7.65;;
47555;SDS011;33291;46.222;26.460;2023-09-30T04:28:00;9.45;;;6.57;;
47555;SDS011;33291;46.222;26.460;2023-09-30T04:30:25;18.13;;;7.57;;
47555;SDS011;33291;46.222;26.460;2023-09-30T04:32:52;11.20;;;7.20;;
47555;SDS011;33291;46.222;26.460;2023-09-30T04:35:18;14.52;;;7.35;;
47555;SDS011;33291;46.222;26.460;2023-09-30T04:37:43;14.07;;;8.15;;
47555;SDS011;33291;46.222;26.460;2023-09-30T04:40:09;13.35;;;7.22;;
47555;SDS011;33291;46.222;26.460;2023-09-30T04:42:44;11.05;;;7.72;;
47555;SDS011;33291;46.222;26.460;2023-09-30T04:45:13;11.85;;;7.40;;
47555;SDS011;33291;46.222;26.460;2023-09-30T04:47:41;14.30;;;7.40;;
47555;SDS011;33291;46.222;26.460;2023-09-30T04:50:09;16.63;;;8.45;;
47555;SDS011;33291;46.222;26.460;2023-09-30T04:52:36;14.80;;;7.85;;
47555;SDS011;33291;46.222;26.460;2023-09-30T04:55:02;14.90;;;7.82;;
47555;SDS011;33291;46.222;26.460;2023-09-30T04:57:29;14.50;;;7.30;;
47555;SDS011;33291;46.222;26.460;2023-09-30T04:59:55;15.32;;;7.68;;
47555;SDS011;33291;46.222;26.460;2023-09-30T05:02:21;12.98;;;7.40;;
47555;SDS011;33291;46.222;26.460;2023-09-30T05:04:47;13.98;;;7.15;;
47555;SDS011;33291;46.222;26.460;2023-09-30T05:07:12;13.27;;;7.53;;
47555;SDS011;33291;46.222;26.460;2023-09-30T05:09:38;10.77;;;8.07;;
47555;SDS011;33291;46.222;26.460;2023-09-30T05:12:04;14.18;;;7.85;;
47555;SDS011;33291;46.222;26.460;2023-09-30T05:14:30;11.18;;;7.57;;
47555;SDS011;33291;46.222;26.460;2023-09-30T05:16:56;18.35;;;8.88;;
47555;SDS011;33291;46.222;26.460;2023-09-30T05:19:22;13.07;;;7.50;;
47555;SDS011;33291;46.222;26.460;2023-09-30T05:21:47;9.88;;;7.55;;
47555;SDS011;33291;46.222;26.460;2023-09-30T05:24:14;19.50;;;7.70;;
47555;SDS011;33291;46.222;26.460;2023-09-30T05:26:40;14.10;;;8.00;;
47555;SDS011;33291;46.222;26.460;2023-09-30T05:29:05;20.88;;;9.40;;
47555;SDS011;33291;46.222;26.460;2023-09-30T05:31:30;18.02;;;8.85;;
47555;SDS011;33291;46.222;26.460;2023-09-30T05:33:57;17.02;;;8.82;;
47555;SDS011;33291;46.222;26.460;2023-09-30T05:36:22;13.43;;;8.57;;
47555;SDS011;33291;46.222;26.460;2023-09-30T05:38:48;14.05;;;8.90;;
47555;SDS011;33291;46.222;26.460;2023-09-30T05:41:16;14.40;;;7.88;;
47555;SDS011;33291;46.222;26.460;2023-09-30T05:43:42;12.80;;;8.48;;
47555;SDS011;33291;46.222;26.460;2023-09-30T05:46:08;19.27;;;8.18;;
47555;SDS011;33291;46.222;26.460;2023-09-30T05:48:34;13.90;;;8.52;;
47555;SDS011;33291;46.222;26.460;2023-09-30T05:50:59;13.40;;;8.45;;
47555;SDS011;33291;46.222;26.460;2023-09-30T05:53:25;16.38;;;9.65;;
47555;SDS011;33291;46.222;26.460;2023-09-30T05:55:52;16.85;;;9.60;;
47555;SDS011;33291;46.222;26.460;2023-09-30T05:58:18;13.40;;;8.80;;
47555;SDS011;33291;46.222;26.460;2023-09-30T06:00:43;18.50;;;7.90;;
47555;SDS011;33291;46.222;26.460;2023-09-30T06:03:09;17.70;;;8.18;;
47555;SDS011;33291;46.222;26.460;2023-09-30T06:05:38;15.43;;;7.15;;
47555;SDS011;33291;46.222;26.460;2023-09-30T06:08:07;14.98;;;8.65;;
47555;SDS011;33291;46.222;26.460;2023-09-30T06:10:39;15.30;;;7.60;;
47555;SDS011;33291;46.222;26.460;2023-09-30T06:13:08;14.57;;;7.38;;
47555;SDS011;33291;46.222;26.460;2023-09-30T06:15:36;15.15;;;6.97;;
47555;SDS011;33291;46.222;26.460;2023-09-30T06:18:05;10.05;;;6.35;;
47555;SDS011;33291;46.222;26.460;2023-09-30T06:20:31;35.05;;;10.15;;
47555;SDS011;33291;46.222;26.460;2023-09-30T06:22:58;17.45;;;7.80;;
47555;SDS011;33291;46.222;26.460;2023-09-30T06:25:25;9.80;;;6.82;;
47555;SDS011;33291;46.222;26.460;2023-09-30T06:27:52;8.30;;;5.97;;
47555;SDS011;33291;46.222;26.460;2023-09-30T06:30:19;12.07;;;6.63;;
47555;SDS011;33291;46.222;26.460;2023-09-30T06:32:46;15.38;;;6.88;;
47555;SDS011;33291;46.222;26.460;2023-09-30T06:35:12;10.23;;;6.00;;
47555;SDS011;33291;46.222;26.460;2023-09-30T06:37:38;11.52;;;5.97;;
47555;SDS011;33291;46.222;26.460;2023-09-30T06:40:07;15.98;;;7.35;;
47555;SDS011;33291;46.222;26.460;2023-09-30T06:42:37;12.38;;;6.50;;
47555;SDS011;33291;46.222;26.460;2023-09-30T06:45:05;11.45;;;6.03;;
47555;SDS011;33291;46.222;26.460;2023-09-30T06:47:34;13.70;;;6.50;;
47555;SDS011;33291;46.222;26.460;2023-09-30T06:50:01;14.63;;;6.20;;
47555;SDS011;33291;46.222;26.460;2023-09-30T06:52:33;16.50;;;6.90;;
47555;SDS011;33291;46.222;26.460;2023-09-30T06:55:00;10.48;;;6.28;;
47555;SDS011;33291;46.222;26.460;2023-09-30T06:57:27;8.57;;;6.43;;
47555;SDS011;33291;46.222;26.460;2023-09-30T06:59:52;9.18;;;6.10;;
47555;SDS011;33291;46.222;26.460;2023-09-30T07:02:17;13.20;;;6.90;;
47555;SDS011;33291;46.222;26.460;2023-09-30T07:04:43;11.48;;;6.57;;
47555;SDS011;33291;46.222;26.460;2023-09-30T07:07:08;13.60;;;6.28;;
47555;SDS011;33291;46.222;26.460;2023-09-30T07:09:34;12.02;;;6.63;;
47555;SDS011;33291;46.222;26.460;2023-09-30T07:12:01;15.30;;;6.78;;
47555;SDS011;33291;46.222;26.460;2023-09-30T07:14:27;10.90;;;5.90;;
47555;SDS011;33291;46.222;26.460;2023-09-30T07:16:52;11.23;;;6.65;;
47555;SDS011;33291;46.222;26.460;2023-09-30T07:19:17;19.65;;;6.38;;
47555;SDS011;33291;46.222;26.460;2023-09-30T07:21:43;12.68;;;6.35;;
47555;SDS011;33291;46.222;26.460;2023-09-30T07:24:08;11.73;;;6.45;;
47555;SDS011;33291;46.222;26.460;2023-09-30T07:26:35;13.82;;;6.72;;
47555;SDS011;33291;46.222;26.460;2023-09-30T07:29:01;15.05;;;7.75;;
47555;SDS011;33291;46.222;26.460;2023-09-30T07:31:26;11.13;;;6.75;;
47555;SDS011;33291;46.222;26.460;2023-09-30T07:33:51;14.30;;;6.10;;
47555;SDS011;33291;46.222;26.460;2023-09-30T07:36:17;12.40;;;7.18;;
47555;SDS011;33291;46.222;26.460;2023-09-30T07:38:43;11.75;;;7.18;;
47555;SDS011;33291;46.222;26.460;2023-09-30T07:41:08;18.63;;;6.63;;
47555;SDS011;33291;46.222;26.460;2023-09-30T07:43:35;12.68;;;6.60;;
47555;SDS011;33291;46.222;26.460;2023-09-30T07:46:05;18.25;;;6.25;;
47555;SDS011;33291;46.222;26.460;2023-09-30T07:48:31;14.73;;;7.57;;
47555;SDS011;33291;46.222;26.460;2023-09-30T07:50:57;13.07;;;8.65;;
47555;SDS011;33291;46.222;26.460;2023-09-30T07:53:23;25.83;;;12.15;;
47555;SDS011;33291;46.222;26.460;2023-09-30T07:55:48;23.02;;;11.20;;
47555;SDS011;33291;46.222;26.460;2023-09-30T07:58:14;19.58;;;10.00;;
47555;SDS011;33291;46.222;26.460;2023-09-30T08:00:39;12.68;;;7.78;;
47555;SDS011;33291;46.222;26.460;2023-09-30T08:03:05;13.60;;;7.35;;
47555;SDS011;33291;46.222;26.460;2023-09-30T08:05:31;12.93;;;7.38;;
47555;SDS011;33291;46.222;26.460;2023-09-30T08:07:57;12.18;;;6.55;;
47555;SDS011;33291;46.222;26.460;2023-09-30T08:10:22;12.18;;;6.40;;
47555;SDS011;33291;46.222;26.460;2023-09-30T08:12:48;13.43;;;6.97;;
47555;SDS011;33291;46.222;26.460;2023-09-30T08:15:15;18.23;;;8.35;;
47555;SDS011;33291;46.222;26.460;2023-09-30T08:17:40;19.55;;;8.73;;
47555;SDS011;33291;46.222;26.460;2023-09-30T08:20:07;21.83;;;6.43;;
47555;SDS011;33291;46.222;26.460;2023-09-30T08:22:36;10.27;;;6.25;;
47555;SDS011;33291;46.222;26.460;2023-09-30T08:25:01;15.27;;;6.90;;
47555;SDS011;33291;46.222;26.460;2023-09-30T08:27:28;10.68;;;6.95;;
47555;SDS011;33291;46.222;26.460;2023-09-30T08:29:53;10.77;;;6.82;;
47555;SDS011;33291;46.222;26.460;2023-09-30T08:32:19;12.00;;;6.88;;
47555;SDS011;33291;46.222;26.460;2023-09-30T08:34:44;9.57;;;6.38;;
47555;SDS011;33291;46.222;26.460;2023-09-30T08:37:10;15.27;;;7.43;;
47555;SDS011;33291;46.222;26.460;2023-09-30T08:39:41;11.65;;;6.38;;
47555;SDS011;33291;46.222;26.460;2023-09-30T08:42:08;24.73;;;6.45;;
47555;SDS011;33291;46.222;26.460;2023-09-30T08:44:36;13.98;;;6.30;;
47555;SDS011;33291;46.222;26.460;2023-09-30T08:47:05;9.00;;;6.18;;
47555;SDS011;33291;46.222;26.460;2023-09-30T08:49:38;7.97;;;5.63;;
47555;SDS011;33291;46.222;26.460;2023-09-30T08:52:06;15.63;;;5.88;;
47555;SDS011;33291;46.222;26.460;2023-09-30T08:54:34;16.85;;;6.20;;
47555;SDS011;33291;46.222;26.460;2023-09-30T08:57:00;10.43;;;5.90;;
47555;SDS011;33291;46.222;26.460;2023-09-30T08:59:25;11.70;;;5.75;;
47555;SDS011;33291;46.222;26.460;2023-09-30T09:01:52;11.10;;;6.15;;
47555;SDS011;33291;46.222;26.460;2023-09-30T09:04:18;9.05;;;5.38;;
47555;SDS011;33291;46.222;26.460;2023-09-30T09:06:43;11.60;;;6.07;;
47555;SDS011;33291;46.222;26.460;2023-09-30T09:09:12;11.25;;;5.43;;
47555;SDS011;33291;46.222;26.460;2023-09-30T09:11:39;10.48;;;4.45;;
47555;SDS011;33291;46.222;26.460;2023-09-30T09:14:05;13.38;;;4.75;;
47555;SDS011;33291;46.222;26.460;2023-09-30T09:16:32;10.85;;;5.13;;
47555;SDS011;33291;46.222;26.460;2023-09-30T09:18:58;13.95;;;4.70;;
47555;SDS011;33291;46.222;26.460;2023-09-30T09:21:23;14.50;;;5.22;;
47555;SDS011;33291;46.222;26.460;2023-09-30T09:23:51;10.00;;;5.00;;
47555;SDS011;33291;46.222;26.460;2023-09-30T09:26:27;8.45;;;4.32;;
47555;SDS011;33291;46.222;26.460;2023-09-30T09:28:58;11.40;;;5.00;;
47555;SDS011;33291;46.222;26.460;2023-09-30T09:31:26;7.35;;;4.82;;
47555;SDS011;33291;46.222;26.460;2023-09-30T09:33:53;9.77;;;5.00;;
47555;SDS011;33291;46.222;26.460;2023-09-30T09:36:19;9.98;;;5.43;;
47555;SDS011;33291;46.222;26.460;2023-09-30T09:38:48;8.95;;;5.53;;
47555;SDS011;33291;46.222;26.460;2023-09-30T09:41:18;7.47;;;4.60;;
47555;SDS011;33291;46.222;26.460;2023-09-30T09:43:43;12.13;;;5.88;;
47555;SDS011;33291;46.222;26.460;2023-09-30T09:46:09;13.95;;;6.40;;
47555;SDS011;33291;46.222;26.460;2023-09-30T09:48:36;9.23;;;6.00;;
47555;SDS011;33291;46.222;26.460;2023-09-30T09:51:03;11.57;;;6.00;;
47555;SDS011;33291;46.222;26.460;2023-09-30T09:53:35;17.15;;;6.32;;
47555;SDS011;33291;46.222;26.460;2023-09-30T09:56:03;19.33;;;6.95;;
47555;SDS011;33291;46.222;26.460;2023-09-30T09:58:29;14.05;;;6.40;;
47555;SDS011;33291;46.222;26.460;2023-09-30T10:00:59;12.52;;;6.40;;
47555;SDS011;33291;46.222;26.460;2023-09-30T10:03:28;13.45;;;6.78;;
47555;SDS011;33291;46.222;26.460;2023-09-30T10:05:54;10.40;;;6.53;;
47555;SDS011;33291;46.222;26.460;2023-09-30T10:08:20;9.60;;;5.80;;
47555;SDS011;33291;46.222;26.460;2023-09-30T10:10:53;11.50;;;5.22;;
47555;SDS011;33291;46.222;26.460;2023-09-30T10:19:15;8.90;;;5.25;;
47555;SDS011;33291;46.222;26.460;2023-09-30T10:24:42;10.63;;;5.00;;
47555;SDS011;33291;46.222;26.460;2023-09-30T10:37:46;15.15;;;5.93;;
47555;SDS011;33291;46.222;26.460;2023-09-30T10:40:28;13.95;;;4.97;;
47555;SDS011;33291;46.222;26.460;2023-09-30T10:42:54;7.97;;;4.82;;
47555;SDS011;33291;46.222;26.460;2023-09-30T10:50:50;15.68;;;6.53;;
47555;SDS011;33291;46.222;26.460;2023-09-30T10:53:16;9.50;;;5.70;;
47555;SDS011;33291;46.222;26.460;2023-09-30T10:55:45;14.82;;;5.88;;
47555;SDS011;33291;46.222;26.460;2023-09-30T10:58:12;10.70;;;6.10;;
47555;SDS011;33291;46.222;26.460;2023-09-30T11:00:38;11.48;;;5.35;;
47555;SDS011;33291;46.222;26.460;2023-09-30T11:03:03;7.25;;;5.15;;
47555;SDS011;33291;46.222;26.460;2023-09-30T11:05:30;18.58;;;5.50;;
47555;SDS011;33291;46.222;26.460;2023-09-30T11:07:59;10.32;;;5.22;;
47555;SDS011;33291;46.222;26.460;2023-09-30T11:10:28;11.93;;;5.18;;
47555;SDS011;33291;46.222;26.460;2023-09-30T11:12:56;11.18;;;5.50;;
47555;SDS011;33291;46.222;26.460;2023-09-30T11:15:23;10.07;;;6.10;;
47555;SDS011;33291;46.222;26.460;2023-09-30T11:17:49;10.52;;;6.13;;
47555;SDS011;33291;46.222;26.460;2023-09-30T11:20:17;6.07;;;5.03;;
47555;SDS011;33291;46.222;26.460;2023-09-30T11:22:46;12.85;;;8.35;;
47555;SDS011;33291;46.222;26.460;2023-09-30T11:25:16;12.38;;;5.30;;
47555;SDS011;33291;46.222;26.460;2023-09-30T11:27:42;18.92;;;8.07;;
47555;SDS011;33291;46.222;26.460;2023-09-30T11:30:08;14.45;;;8.40;;
47555;SDS011;33291;46.222;26.460;2023-09-30T11:32:35;14.85;;;7.85;;
47555;SDS011;33291;46.222;26.460;2023-09-30T11:35:00;11.23;;;7.28;;
47555;SDS011;33291;46.222;26.460;2023-09-30T11:37:32;11.73;;;5.78;;
47555;SDS011;33291;46.222;26.460;2023-09-30T11:40:14;9.35;;;5.63;;
47555;SDS011;33291;46.222;26.460;2023-09-30T11:42:40;9.95;;;5.18;;
47555;SDS011;33291;46.222;26.460;2023-09-30T11:45:18;10.98;;;5.28;;
47555;SDS011;33291;46.222;26.460;2023-09-30T11:47:50;17.05;;;5.72;;
47555;SDS011;33291;46.222;26.460;2023-09-30T11:50:15;9.75;;;4.90;;
47555;SDS011;33291;46.222;26.460;2023-09-30T11:52:43;9.00;;;5.13;;
47555;SDS011;33291;46.222;26.460;2023-09-30T11:55:10;9.25;;;5.28;;
47555;SDS011;33291;46.222;26.460;2023-09-30T11:57:37;10.88;;;5.18;;
47555;SDS011;33291;46.222;26.460;2023-09-30T12:00:04;9.77;;;4.45;;
47555;SDS011;33291;46.222;26.460;2023-09-30T12:02:38;9.98;;;5.35;;
47555;SDS011;33291;46.222;26.460;2023-09-30T12:05:05;14.65;;;5.15;;
47555;SDS011;33291;46.222;26.460;2023-09-30T12:07:36;14.45;;;5.47;;
47555;SDS011;33291;46.222;26.460;2023-09-30T12:10:03;11.32;;;5.40;;
47555;SDS011;33291;46.222;26.460;2023-09-30T12:12:29;11.93;;;5.43;;
47555;SDS011;33291;46.222;26.460;2023-09-30T12:14:54;10.07;;;5.50;;
47555;SDS011;33291;46.222;26.460;2023-09-30T12:17:20;12.43;;;5.35;;
47555;SDS011;33291;46.222;26.460;2023-09-30T12:19:47;9.25;;;5.32;;
47555;SDS011;33291;46.222;26.460;2023-09-30T12:22:13;8.52;;;5.10;;
47555;SDS011;33291;46.222;26.460;2023-09-30T12:24:39;10.10;;;5.45;;
47555;SDS011;33291;46.222;26.460;2023-09-30T12:27:04;20.45;;;5.53;;
47555;SDS011;33291;46.222;26.460;2023-09-30T12:29:31;9.40;;;5.03;;
47555;SDS011;33291;46.222;26.460;2023-09-30T12:31:56;8.48;;;5.30;;
47555;SDS011;33291;46.222;26.460;2023-09-30T12:34:22;11.95;;;5.18;;
47555;SDS011;33291;46.222;26.460;2023-09-30T12:36:51;11.45;;;5.10;;
47555;SDS011;33291;46.222;26.460;2023-09-30T12:39:17;11.43;;;5.68;;
47555;SDS011;33291;46.222;26.460;2023-09-30T12:41:48;6.57;;;4.72;;
47555;SDS011;33291;46.222;26.460;2023-09-30T12:44:14;12.60;;;5.32;;
47555;SDS011;33291;46.222;26.460;2023-09-30T12:46:40;10.90;;;6.00;;
47555;SDS011;33291;46.222;26.460;2023-09-30T12:49:06;12.98;;;5.85;;
47555;SDS011;33291;46.222;26.460;2023-09-30T12:51:35;12.27;;;5.57;;
47555;SDS011;33291;46.222;26.460;2023-09-30T12:54:02;11.90;;;5.28;;
47555;SDS011;33291;46.222;26.460;2023-09-30T12:56:28;13.45;;;7.60;;
47555;SDS011;33291;46.222;26.460;2023-09-30T12:58:54;15.15;;;7.95;;
47555;SDS011;33291;46.222;26.460;2023-09-30T13:01:21;9.13;;;5.90;;
47555;SDS011;33291;46.222;26.460;2023-09-30T13:03:47;10.95;;;5.43;;
47555;SDS011;33291;46.222;26.460;2023-09-30T13:06:14;13.55;;;5.72;;
47555;SDS011;33291;46.222;26.460;2023-09-30T13:08:41;12.98;;;5.40;;
47555;SDS011;33291;46.222;26.460;2023-09-30T13:11:07;13.07;;;5.65;;
47555;SDS011;33291;46.222;26.460;2023-09-30T13:13:32;11.68;;;5.38;;
47555;SDS011;33291;46.222;26.460;2023-09-30T13:15:59;11.40;;;5.90;;
47555;SDS011;33291;46.222;26.460;2023-09-30T13:18:25;10.90;;;5.10;;
47555;SDS011;33291;46.222;26.460;2023-09-30T13:20:50;13.70;;;6.55;;
47555;SDS011;33291;46.222;26.460;2023-09-30T13:23:17;10.85;;;5.35;;
47555;SDS011;33291;46.222;26.460;2023-09-30T13:25:43;12.25;;;5.15;;
47555;SDS011;33291;46.222;26.460;2023-09-30T13:28:09;9.88;;;5.30;;
47555;SDS011;33291;46.222;26.460;2023-09-30T13:30:35;9.48;;;5.50;;
47555;SDS011;33291;46.222;26.460;2023-09-30T13:33:01;10.48;;;5.30;;
47555;SDS011;33291;46.222;26.460;2023-09-30T13:35:26;17.33;;;5.15;;
47555;SDS011;33291;46.222;26.460;2023-09-30T13:37:52;9.13;;;4.70;;
47555;SDS011;33291;46.222;26.460;2023-09-30T13:40:17;8.55;;;5.20;;
47555;SDS011;33291;46.222;26.460;2023-09-30T13:42:43;11.95;;;5.40;;
47555;SDS011;33291;46.222;26.460;2023-09-30T13:45:09;9.90;;;4.95;;
47555;SDS011;33291;46.222;26.460;2023-09-30T13:47:35;9.45;;;5.68;;
47555;SDS011;33291;46.222;26.460;2023-09-30T13:50:01;13.98;;;7.45;;
47555;SDS011;33291;46.222;26.460;2023-09-30T13:52:29;13.95;;;6.75;;
47555;SDS011;33291;46.222;26.460;2023-09-30T13:54:54;11.98;;;7.35;;
47555;SDS011;33291;46.222;26.460;2023-09-30T13:57:20;14.63;;;7.00;;
47555;SDS011;33291;46.222;26.460;2023-09-30T13:59:46;9.45;;;5.78;;
47555;SDS011;33291;46.222;26.460;2023-09-30T14:02:12;7.68;;;5.40;;
47555;SDS011;33291;46.222;26.460;2023-09-30T14:04:37;8.43;;;4.85;;
47555;SDS011;33291;46.222;26.460;2023-09-30T14:07:03;12.02;;;5.43;;
47555;SDS011;33291;46.222;26.460;2023-09-30T14:09:30;7.63;;;4.85;;
47555;SDS011;33291;46.222;26.460;2023-09-30T14:11:56;16.45;;;4.93;;
47555;SDS011;33291;46.222;26.460;2023-09-30T14:14:23;13.63;;;5.68;;
47555;SDS011;33291;46.222;26.460;2023-09-30T14:16:49;14.30;;;5.47;;
47555;SDS011;33291;46.222;26.460;2023-09-30T14:19:15;8.30;;;4.95;;
47555;SDS011;33291;46.222;26.460;2023-09-30T14:21:40;12.82;;;5.80;;
47555;SDS011;33291;46.222;26.460;2023-09-30T14:24:06;9.40;;;5.25;;
47555;SDS011;33291;46.222;26.460;2023-09-30T14:26:32;11.13;;;5.28;;
47555;SDS011;33291;46.222;26.460;2023-09-30T14:28:58;12.32;;;5.40;;
47555;SDS011;33291;46.222;26.460;2023-09-30T14:31:23;14.35;;;5.50;;
47555;SDS011;33291;46.222;26.460;2023-09-30T14:33:49;8.90;;;5.13;;
47555;SDS011;33291;46.222;26.460;2023-09-30T14:36:16;9.80;;;5.13;;
47555;SDS011;33291;46.222;26.460;2023-09-30T14:38:43;6.93;;;4.95;;
47555;SDS011;33291;46.222;26.460;2023-09-30T14:41:10;10.02;;;4.70;;
47555;SDS011;33291;46.222;26.460;2023-09-30T14:43:37;11.68;;;5.60;;
47555;SDS011;33291;46.222;26.460;2023-09-30T14:46:03;10.27;;;5.28;;